sensor_id;sensor_type;location;lat;lon;timestamp;pressure;altitude;pressure_sealevel;temperature;humidity
59055;BME280;44845;51.444;7.460;2023-08-21T00:01:36;100406.25;;;18.79;87.81
59055;BME280;44845;51.444;7.460;2023-08-21T00:04:02;100407.28;;;18.75;87.98
59055;BME280;44845;51.444;7.460;2023-08-21T00:06:27;100406.59;;;18.68;88.59
59055;BME280;44845;51.444;7.460;2023-08-21T00:08:52;100398.59;;;18.70;88.62
59055;BME280;44845;51.444;7.460;2023-08-21T00:11:18;100405.63;;;18.71;88.21
59055;BME280;44845;51.444;7.460;2023-08-21T00:13:43;100402.16;;;18.69;88.05
59055;BME280;44845;51.444;7.460;2023-08-21T00:16:10;100400.53;;;18.65;88.32
59055;BME280;44845;51.444;7.460;2023-08-21T00:18:36;100404.19;;;18.61;89.12
59055;BME280;44845;51.444;7.460;2023-08-21T00:21:01;100405.22;;;18.56;89.12
59055;BME280;44845;51.444;7.460;2023-08-21T00:23:27;100411.50;;;18.54;89.22
59055;BME280;44845;51.444;7.460;2023-08-21T00:25:52;100417.38;;;18.64;88.07
59055;BME280;44845;51.444;7.460;2023-08-21T00:28:17;100421.22;;;18.53;88.30
59055;BME280;44845;51.444;7.460;2023-08-21T00:30:43;100414.94;;;18.57;87.79
59055;BME280;44845;51.444;7.460;2023-08-21T00:33:08;100408.16;;;18.47;88.10
59055;BME280;44845;51.444;7.460;2023-08-21T00:35:33;100418.88;;;18.44;88.75
59055;BME280;44845;51.444;7.460;2023-08-21T00:37:59;100412.69;;;18.43;88.90
59055;BME280;44845;51.444;7.460;2023-08-21T00:40:24;100415.31;;;18.45;88.74
59055;BME280;44845;51.444;7.460;2023-08-21T00:42:50;100411.78;;;18.44;88.54
59055;BME280;44845;51.444;7.460;2023-08-21T00:45:16;100408.09;;;18.50;88.57
59055;BME280;44845;51.444;7.460;2023-08-21T00:47:42;100411.84;;;18.43;88.91
59055;BME280;44845;51.444;7.460;2023-08-21T00:50:08;100410.09;;;18.42;89.38
59055;BME280;44845;51.444;7.460;2023-08-21T00:52:35;100407.34;;;18.45;89.03
59055;BME280;44845;51.444;7.460;2023-08-21T00:55:00;100406.53;;;18.43;88.83
59055;BME280;44845;51.444;7.460;2023-08-21T00:57:26;100412.03;;;18.37;89.04
59055;BME280;44845;51.444;7.460;2023-08-21T00:59:52;100412.16;;;18.33;89.12
59055;BME280;44845;51.444;7.460;2023-08-21T01:02:18;100413.00;;;18.34;88.81
59055;BME280;44845;51.444;7.460;2023-08-21T01:04:44;100411.41;;;18.28;89.66
59055;BME280;44845;51.444;7.460;2023-08-21T01:07:10;100413.13;;;18.31;89.16
59055;BME280;44845;51.444;7.460;2023-08-21T01:12:16;100413.06;;;18.32;89.04
59055;BME280;44845;51.444;7.460;2023-08-21T01:14:51;100411.94;;;18.40;88.94
59055;BME280;44845;51.444;7.460;2023-08-21T01:17:19;100418.41;;;18.31;89.11
59055;BME280;44845;51.444;7.460;2023-08-21T01:19:48;100421.22;;;18.26;89.23
59055;BME280;44845;51.444;7.460;2023-08-21T01:22:15;100417.63;;;18.27;89.37
59055;BME280;44845;51.444;7.460;2023-08-21T01:24:40;100419.56;;;18.22;89.21
59055;BME280;44845;51.444;7.460;2023-08-21T01:27:06;100424.78;;;18.25;89.39
59055;BME280;44845;51.444;7.460;2023-08-21T01:29:31;100430.22;;;18.20;89.42
59055;BME280;44845;51.444;7.460;2023-08-21T01:34:51;100432.06;;;18.17;89.49
59055;BME280;44845;51.444;7.460;2023-08-21T01:37:19;100436.47;;;18.18;89.87
59055;BME280;44845;51.444;7.460;2023-08-21T01:39:45;100438.19;;;18.19;89.51
59055;BME280;44845;51.444;7.460;2023-08-21T01:42:10;100432.19;;;18.14;90.10
59055;BME280;44845;51.444;7.460;2023-08-21T01:44:36;100430.44;;;18.12;90.07
59055;BME280;44845;51.444;7.460;2023-08-21T01:47:01;100432.25;;;18.10;89.66
59055;BME280;44845;51.444;7.460;2023-08-21T01:49:26;100437.63;;;18.09;89.91
59055;BME280;44845;51.444;7.460;2023-08-21T01:51:52;100432.06;;;18.17;89.98
59055;BME280;44845;51.444;7.460;2023-08-21T01:54:17;100428.66;;;18.13;90.00
59055;BME280;44845;51.444;7.460;2023-08-21T01:56:43;100427.84;;;18.11;89.81
59055;BME280;44845;51.444;7.460;2023-08-21T01:59:08;100424.38;;;18.07;90.17
59055;BME280;44845;51.444;7.460;2023-08-21T02:01:33;100419.09;;;18.07;90.17
59055;BME280;44845;51.444;7.460;2023-08-21T02:03:59;100425.34;;;18.05;90.09
59055;BME280;44845;51.444;7.460;2023-08-21T02:06:24;100420.84;;;18.08;89.97
59055;BME280;44845;51.444;7.460;2023-08-21T02:08:49;100419.88;;;18.11;89.45
59055;BME280;44845;51.444;7.460;2023-08-21T02:11:15;100417.22;;;18.11;88.70
59055;BME280;44845;51.444;7.460;2023-08-21T02:13:40;100411.13;;;18.07;88.76
59055;BME280;44845;51.444;7.460;2023-08-21T02:16:05;100409.53;;;18.01;89.08
59055;BME280;44845;51.444;7.460;2023-08-21T02:18:31;100405.91;;;18.04;89.17
59055;BME280;44845;51.444;7.460;2023-08-21T02:20:56;100397.94;;;18.04;88.80
59055;BME280;44845;51.444;7.460;2023-08-21T02:23:22;100404.09;;;18.06;88.78
59055;BME280;44845;51.444;7.460;2023-08-21T02:25:49;100396.16;;;18.05;88.49
59055;BME280;44845;51.444;7.460;2023-08-21T02:28:14;100402.41;;;18.04;88.61
59055;BME280;44845;51.444;7.460;2023-08-21T02:30:40;100407.72;;;18.02;88.49
59055;BME280;44845;51.444;7.460;2023-08-21T02:33:06;100400.66;;;18.03;88.69
59055;BME280;44845;51.444;7.460;2023-08-21T02:35:31;100400.72;;;18.01;88.14
59055;BME280;44845;51.444;7.460;2023-08-21T02:37:57;100397.19;;;18.00;87.58
59055;BME280;44845;51.444;7.460;2023-08-21T02:40:22;100394.47;;;18.02;87.13
59055;BME280;44845;51.444;7.460;2023-08-21T02:42:47;100395.44;;;17.99;87.48
59055;BME280;44845;51.444;7.460;2023-08-21T02:45:13;100400.78;;;17.98;87.29
59055;BME280;44845;51.444;7.460;2023-08-21T02:47:39;100401.75;;;17.95;87.38
59055;BME280;44845;51.444;7.460;2023-08-21T02:50:05;100408.88;;;17.93;88.06
59055;BME280;44845;51.444;7.460;2023-08-21T02:52:31;100411.59;;;17.92;87.69
59055;BME280;44845;51.444;7.460;2023-08-21T02:54:57;100410.66;;;17.93;87.73
59055;BME280;44845;51.444;7.460;2023-08-21T02:57:24;100407.19;;;17.90;87.63
59055;BME280;44845;51.444;7.460;2023-08-21T02:59:49;100407.84;;;17.99;87.49
59055;BME280;44845;51.444;7.460;2023-08-21T03:02:15;100417.72;;;17.94;87.57
59055;BME280;44845;51.444;7.460;2023-08-21T03:04:40;100413.41;;;17.89;88.32
59055;BME280;44845;51.444;7.460;2023-08-21T03:07:06;100409.75;;;17.94;87.39
59055;BME280;44845;51.444;7.460;2023-08-21T03:09:31;100410.63;;;17.94;87.97
59055;BME280;44845;51.444;7.460;2023-08-21T03:11:56;100410.72;;;17.91;89.00
59055;BME280;44845;51.444;7.460;2023-08-21T03:14:22;100406.28;;;17.92;88.98
59055;BME280;44845;51.444;7.460;2023-08-21T03:16:47;100413.25;;;17.96;88.73
59055;BME280;44845;51.444;7.460;2023-08-21T03:19:12;100403.50;;;17.96;89.21
59055;BME280;44845;51.444;7.460;2023-08-21T03:21:38;100412.28;;;17.98;89.44
59055;BME280;44845;51.444;7.460;2023-08-21T03:24:03;100408.09;;;17.89;89.93
59055;BME280;44845;51.444;7.460;2023-08-21T03:26:28;100415.16;;;17.90;89.73
59055;BME280;44845;51.444;7.460;2023-08-21T03:28:54;100406.28;;;17.92;89.62
59055;BME280;44845;51.444;7.460;2023-08-21T03:31:19;100409.03;;;17.88;89.59
59055;BME280;44845;51.444;7.460;2023-08-21T03:33:44;100401.94;;;17.89;89.78
59055;BME280;44845;51.444;7.460;2023-08-21T03:36:10;100394.88;;;17.88;89.82
59055;BME280;44845;51.444;7.460;2023-08-21T03:38:35;100395.34;;;17.72;90.17
59055;BME280;44845;51.444;7.460;2023-08-21T03:41:01;100400.56;;;17.75;90.43
59055;BME280;44845;51.444;7.460;2023-08-21T03:43:27;100411.97;;;17.77;89.69
59055;BME280;44845;51.444;7.460;2023-08-21T03:45:52;100417.25;;;17.79;89.59
59055;BME280;44845;51.444;7.460;2023-08-21T03:48:17;100414.56;;;17.81;89.49
59055;BME280;44845;51.444;7.460;2023-08-21T03:50:43;100415.44;;;17.81;88.95
59055;BME280;44845;51.444;7.460;2023-08-21T03:53:08;100417.34;;;17.76;89.53
59055;BME280;44845;51.444;7.460;2023-08-21T03:55:34;100414.81;;;17.71;89.82
59055;BME280;44845;51.444;7.460;2023-08-21T03:58:00;100412.91;;;17.76;89.22
59055;BME280;44845;51.444;7.460;2023-08-21T04:00:25;100409.53;;;17.71;90.00
59055;BME280;44845;51.444;7.460;2023-08-21T04:02:50;100404.22;;;17.71;89.81
59055;BME280;44845;51.444;7.460;2023-08-21T04:05:16;100404.09;;;17.76;89.95
59055;BME280;44845;51.444;7.460;2023-08-21T04:07:41;100405.19;;;17.69;89.63
59055;BME280;44845;51.444;7.460;2023-08-21T04:10:07;100405.09;;;17.72;89.82
59055;BME280;44845;51.444;7.460;2023-08-21T04:12:32;100403.25;;;17.74;89.95
59055;BME280;44845;51.444;7.460;2023-08-21T04:14:57;100410.41;;;17.72;89.90
59055;BME280;44845;51.444;7.460;2023-08-21T04:17:23;100408.84;;;17.64;90.29
59055;BME280;44845;51.444;7.460;2023-08-21T04:19:49;100410.75;;;17.59;90.72
59055;BME280;44845;51.444;7.460;2023-08-21T04:22:15;100416.06;;;17.59;90.29
59055;BME280;44845;51.444;7.460;2023-08-21T04:24:41;100416.22;;;17.53;90.36
59055;BME280;44845;51.444;7.460;2023-08-21T04:27:07;100423.25;;;17.54;90.23
59055;BME280;44845;51.444;7.460;2023-08-21T04:29:32;100419.78;;;17.52;90.52
59055;BME280;44845;51.444;7.460;2023-08-21T04:31:58;100419.81;;;17.50;90.53
59055;BME280;44845;51.444;7.460;2023-08-21T04:34:23;100416.13;;;17.56;90.40
59055;BME280;44845;51.444;7.460;2023-08-21T04:36:48;100421.63;;;17.50;90.62
59055;BME280;44845;51.444;7.460;2023-08-21T04:39:14;100424.41;;;17.45;91.12
59055;BME280;44845;51.444;7.460;2023-08-21T04:41:41;100425.09;;;17.52;91.82
59055;BME280;44845;51.444;7.460;2023-08-21T04:44:06;100431.03;;;17.60;91.46
59055;BME280;44845;51.444;7.460;2023-08-21T04:46:32;100430.81;;;17.68;91.22
59055;BME280;44845;51.444;7.460;2023-08-21T04:48:57;100436.19;;;17.66;91.63
59055;BME280;44845;51.444;7.460;2023-08-21T04:51:22;100431.78;;;17.65;91.51
59055;BME280;44845;51.444;7.460;2023-08-21T04:53:48;100438.69;;;17.71;91.90
59055;BME280;44845;51.444;7.460;2023-08-21T04:56:13;100428.16;;;17.68;91.98
59055;BME280;44845;51.444;7.460;2023-08-21T04:58:38;100432.47;;;17.72;92.07
59055;BME280;44845;51.444;7.460;2023-08-21T05:01:07;100435.97;;;17.74;91.97
59055;BME280;44845;51.444;7.460;2023-08-21T05:03:32;100439.53;;;17.73;91.84
59055;BME280;44845;51.444;7.460;2023-08-21T05:05:57;100440.41;;;17.74;92.04
59055;BME280;44845;51.444;7.460;2023-08-21T05:08:24;100439.47;;;17.75;91.69
59055;BME280;44845;51.444;7.460;2023-08-21T05:10:59;100437.56;;;17.80;91.88
59055;BME280;44845;51.444;7.460;2023-08-21T05:13:26;100432.47;;;17.72;91.86
59055;BME280;44845;51.444;7.460;2023-08-21T05:15:55;100436.03;;;17.71;92.00
59055;BME280;44845;51.444;7.460;2023-08-21T05:18:22;100434.22;;;17.73;92.01
59055;BME280;44845;51.444;7.460;2023-08-21T05:20:48;100438.66;;;17.73;91.83
59055;BME280;44845;51.444;7.460;2023-08-21T05:23:14;100438.50;;;17.79;91.78
59055;BME280;44845;51.444;7.460;2023-08-21T05:25:39;100431.28;;;17.84;91.72
59055;BME280;44845;51.444;7.460;2023-08-21T05:28:05;100442.03;;;17.78;92.21
59055;BME280;44845;51.444;7.460;2023-08-21T05:30:31;100435.84;;;17.77;92.36
59055;BME280;44845;51.444;7.460;2023-08-21T05:32:56;100434.91;;;17.80;92.93
59055;BME280;44845;51.444;7.460;2023-08-21T05:35:21;100432.13;;;17.85;92.17
59055;BME280;44845;51.444;7.460;2023-08-21T05:37:47;100435.59;;;17.87;91.81
59055;BME280;44845;51.444;7.460;2023-08-21T05:40:12;100434.81;;;17.83;92.53
59055;BME280;44845;51.444;7.460;2023-08-21T05:42:38;100441.00;;;17.84;92.54
59055;BME280;44845;51.444;7.460;2023-08-21T05:45:04;100443.53;;;17.88;93.12
59055;BME280;44845;51.444;7.460;2023-08-21T05:47:30;100428.38;;;17.92;93.04
59055;BME280;44845;51.444;7.460;2023-08-21T05:49:55;100436.19;;;17.97;92.55
59055;BME280;44845;51.444;7.460;2023-08-21T05:52:21;100433.50;;;17.98;92.52
59055;BME280;44845;51.444;7.460;2023-08-21T05:54:47;100432.53;;;18.01;92.17
59055;BME280;44845;51.444;7.460;2023-08-21T05:57:12;100433.31;;;18.05;91.67
59055;BME280;44845;51.444;7.460;2023-08-21T05:59:45;100426.97;;;18.10;91.78
59055;BME280;44845;51.444;7.460;2023-08-21T06:02:12;100427.84;;;18.11;91.58
59055;BME280;44845;51.444;7.460;2023-08-21T06:04:39;100426.88;;;18.14;91.18
59055;BME280;44845;51.444;7.460;2023-08-21T06:07:05;100431.06;;;18.22;91.04
59055;BME280;44845;51.444;7.460;2023-08-21T06:09:30;100432.00;;;18.20;91.12
59055;BME280;44845;51.444;7.460;2023-08-21T06:11:59;100430.84;;;18.29;91.08
59055;BME280;44845;51.444;7.460;2023-08-21T06:14:26;100435.19;;;18.31;90.78
59055;BME280;44845;51.444;7.460;2023-08-21T06:16:58;100438.69;;;18.33;87.52
59055;BME280;44845;51.444;7.460;2023-08-21T06:19:24;100442.91;;;18.41;90.26
59055;BME280;44845;51.444;7.460;2023-08-21T06:21:49;100455.88;;;18.50;90.85
59055;BME280;44845;51.444;7.460;2023-08-21T06:24:15;100453.00;;;18.56;91.19
59055;BME280;44845;51.444;7.460;2023-08-21T06:26:40;100442.41;;;18.56;85.83
59055;BME280;44845;51.444;7.460;2023-08-21T06:29:05;100444.88;;;18.63;87.65
59055;BME280;44845;51.444;7.460;2023-08-21T06:31:31;100435.78;;;18.70;85.04
59055;BME280;44845;51.444;7.460;2023-08-21T06:33:56;100436.50;;;18.75;83.27
59055;BME280;44845;51.444;7.460;2023-08-21T06:36:22;100450.28;;;18.87;85.93
59055;BME280;44845;51.444;7.460;2023-08-21T06:38:47;100452.63;;;18.96;88.38
59055;BME280;44845;51.444;7.460;2023-08-21T06:41:13;100453.28;;;19.03;88.91
59055;BME280;44845;51.444;7.460;2023-08-21T06:43:38;100449.88;;;18.99;88.54
59055;BME280;44845;51.444;7.460;2023-08-21T06:46:04;100453.25;;;19.05;88.77
59055;BME280;44845;51.444;7.460;2023-08-21T06:48:29;100453.28;;;19.03;90.88
59055;BME280;44845;51.444;7.460;2023-08-21T06:50:54;100454.38;;;18.97;84.42
59055;BME280;44845;51.444;7.460;2023-08-21T06:53:19;100454.16;;;19.04;86.20
59055;BME280;44845;51.444;7.460;2023-08-21T06:55:45;100453.25;;;19.05;87.88
59055;BME280;44845;51.444;7.460;2023-08-21T06:58:11;100452.22;;;19.09;84.85
59055;BME280;44845;51.444;7.460;2023-08-21T07:00:36;100440.63;;;19.11;87.91
59055;BME280;44845;51.444;7.460;2023-08-21T07:03:02;100443.13;;;19.16;88.88
59055;BME280;44845;51.444;7.460;2023-08-21T07:05:28;100443.13;;;19.16;84.56
59055;BME280;44845;51.444;7.460;2023-08-21T07:07:54;100447.63;;;19.14;84.78
59055;BME280;44845;51.444;7.460;2023-08-21T07:10:20;100442.09;;;19.20;86.23
59055;BME280;44845;51.444;7.460;2023-08-21T07:12:45;100448.25;;;19.22;85.12
59055;BME280;44845;51.444;7.460;2023-08-21T07:15:11;100444.44;;;19.30;85.38
59055;BME280;44845;51.444;7.460;2023-08-21T07:17:36;100445.28;;;19.32;85.05
59055;BME280;44845;51.444;7.460;2023-08-21T07:20:02;100440.44;;;19.43;86.51
59055;BME280;44845;51.444;7.460;2023-08-21T07:22:29;100452.38;;;19.57;85.38
59055;BME280;44845;51.444;7.460;2023-08-21T07:24:54;100448.34;;;19.71;86.01
59055;BME280;44845;51.444;7.460;2023-08-21T07:27:20;100446.03;;;19.85;83.10
59055;BME280;44845;51.444;7.460;2023-08-21T07:29:45;100452.97;;;19.89;83.69
59055;BME280;44845;51.444;7.460;2023-08-21T07:32:10;100448.47;;;19.91;83.32
59055;BME280;44845;51.444;7.460;2023-08-21T07:34:36;100445.22;;;20.07;81.94
59055;BME280;44845;51.444;7.460;2023-08-21T07:37:01;100437.72;;;20.19;80.89
59055;BME280;44845;51.444;7.460;2023-08-21T07:39:29;100439.47;;;20.20;82.28
59055;BME280;44845;51.444;7.460;2023-08-21T07:41:55;100446.28;;;20.27;82.27
59055;BME280;44845;51.444;7.460;2023-08-21T07:44:20;100439.78;;;20.34;80.65
59055;BME280;44845;51.444;7.460;2023-08-21T07:46:45;100444.03;;;20.39;81.90
59055;BME280;44845;51.444;7.460;2023-08-21T07:49:11;100450.06;;;20.44;80.32
59055;BME280;44845;51.444;7.460;2023-08-21T07:51:36;100450.25;;;20.39;80.11
59055;BME280;44845;51.444;7.460;2023-08-21T07:54:02;100454.69;;;20.39;80.10
59055;BME280;44845;51.444;7.460;2023-08-21T07:56:27;100457.56;;;20.56;79.90
59055;BME280;44845;51.444;7.460;2023-08-21T07:58:52;100448.50;;;20.61;79.24
59055;BME280;44845;51.444;7.460;2023-08-21T08:01:18;100455.81;;;20.55;79.24
59055;BME280;44845;51.444;7.460;2023-08-21T08:03:46;100454.53;;;20.66;79.28
59055;BME280;44845;51.444;7.460;2023-08-21T08:06:11;100455.22;;;20.71;79.76
59055;BME280;44845;51.444;7.460;2023-08-21T08:08:36;100456.81;;;20.75;78.22
59055;BME280;44845;51.444;7.460;2023-08-21T08:11:03;100458.41;;;20.79;77.73
59055;BME280;44845;51.444;7.460;2023-08-21T08:13:29;100455.81;;;20.78;77.63
59055;BME280;44845;51.444;7.460;2023-08-21T08:15:54;100458.88;;;20.89;76.22
59055;BME280;44845;51.444;7.460;2023-08-21T08:18:19;100454.50;;;20.88;77.11
59055;BME280;44845;51.444;7.460;2023-08-21T08:20:45;100459.53;;;20.96;76.23
59055;BME280;44845;51.444;7.460;2023-08-21T08:23:10;100452.53;;;20.93;77.33
59055;BME280;44845;51.444;7.460;2023-08-21T08:25:35;100448.91;;;20.95;77.14
59055;BME280;44845;51.444;7.460;2023-08-21T08:28:01;100441.78;;;20.95;76.85
59055;BME280;44845;51.444;7.460;2023-08-21T08:30:26;100443.09;;;21.07;75.72
59055;BME280;44845;51.444;7.460;2023-08-21T08:32:52;100447.75;;;21.02;75.64
59055;BME280;44845;51.444;7.460;2023-08-21T08:35:17;100440.69;;;21.01;75.30
59055;BME280;44845;51.444;7.460;2023-08-21T08:37:43;100444.97;;;21.05;75.43
59055;BME280;44845;51.444;7.460;2023-08-21T08:40:12;100448.63;;;21.02;75.58
59055;BME280;44845;51.444;7.460;2023-08-21T08:42:38;100444.09;;;21.04;77.32
59055;BME280;44845;51.444;7.460;2023-08-21T08:45:04;100438.56;;;21.09;76.31
59055;BME280;44845;51.444;7.460;2023-08-21T08:47:33;100432.38;;;21.09;76.89
59055;BME280;44845;51.444;7.460;2023-08-21T08:50:02;100437.44;;;21.15;76.70
59055;BME280;44845;51.444;7.460;2023-08-21T08:52:31;100442.47;;;21.21;75.87
59055;BME280;44845;51.444;7.460;2023-08-21T08:54:59;100439.81;;;21.21;76.50
59055;BME280;44845;51.444;7.460;2023-08-21T08:57:24;100445.69;;;21.30;75.80
59055;BME280;44845;51.444;7.460;2023-08-21T08:59:49;100443.94;;;21.29;74.91
59055;BME280;44845;51.444;7.460;2023-08-21T09:02:15;100453.09;;;21.23;76.55
59055;BME280;44845;51.444;7.460;2023-08-21T09:04:41;100452.63;;;21.34;75.19
59055;BME280;44845;51.444;7.460;2023-08-21T09:07:07;100450.91;;;21.33;74.89
59055;BME280;44845;51.444;7.460;2023-08-21T09:09:38;100445.97;;;21.23;75.56
59055;BME280;44845;51.444;7.460;2023-08-21T09:12:09;100457.50;;;21.24;74.43
59055;BME280;44845;51.444;7.460;2023-08-21T09:14:35;100445.22;;;21.20;75.91
59055;BME280;44845;51.444;7.460;2023-08-21T09:17:01;100452.09;;;21.25;74.91
59055;BME280;44845;51.444;7.460;2023-08-21T09:19:29;100454.63;;;21.29;74.13
59055;BME280;44845;51.444;7.460;2023-08-21T09:21:55;100458.47;;;21.21;75.04
59055;BME280;44845;51.444;7.460;2023-08-21T09:24:20;100448.75;;;21.41;73.16
59055;BME280;44845;51.444;7.460;2023-08-21T09:26:45;100449.13;;;21.33;74.40
59055;BME280;44845;51.444;7.460;2023-08-21T09:29:11;100457.16;;;21.32;74.32
59055;BME280;44845;51.444;7.460;2023-08-21T09:31:36;100443.41;;;21.41;73.51
59055;BME280;44845;51.444;7.460;2023-08-21T09:34:03;100446.28;;;21.36;74.35
59055;BME280;44845;51.444;7.460;2023-08-21T09:36:33;100449.63;;;21.42;72.49
59055;BME280;44845;51.444;7.460;2023-08-21T09:38:59;100447.63;;;21.47;72.58
59055;BME280;44845;51.444;7.460;2023-08-21T09:41:25;100448.50;;;21.47;72.02
59055;BME280;44845;51.444;7.460;2023-08-21T09:43:51;100446.91;;;21.43;72.50
59055;BME280;44845;51.444;7.460;2023-08-21T09:46:17;100439.94;;;21.39;73.87
59055;BME280;44845;51.444;7.460;2023-08-21T09:48:48;100437.41;;;21.57;71.74
59055;BME280;44845;51.444;7.460;2023-08-21T09:51:14;100435.28;;;21.65;71.35
59055;BME280;44845;51.444;7.460;2023-08-21T09:53:40;100436.53;;;21.56;72.06
59055;BME280;44845;51.444;7.460;2023-08-21T09:56:06;100445.81;;;21.47;72.88
59055;BME280;44845;51.444;7.460;2023-08-21T09:58:37;100436.41;;;21.59;72.97
59055;BME280;44845;51.444;7.460;2023-08-21T10:01:07;100441.63;;;21.82;70.45
59055;BME280;44845;51.444;7.460;2023-08-21T10:03:41;100439.41;;;21.73;71.46
59055;BME280;44845;51.444;7.460;2023-08-21T10:06:08;100438.00;;;21.83;70.56
59055;BME280;44845;51.444;7.460;2023-08-21T10:08:40;100435.78;;;21.74;71.96
59055;BME280;44845;51.444;7.460;2023-08-21T10:11:09;100426.31;;;21.66;70.68
59055;BME280;44845;51.444;7.460;2023-08-21T10:13:36;100434.09;;;21.71;70.68
59055;BME280;44845;51.444;7.460;2023-08-21T10:16:03;100426.13;;;21.90;69.96
59055;BME280;44845;51.444;7.460;2023-08-21T10:18:32;100435.16;;;21.88;69.26
59055;BME280;44845;51.444;7.460;2023-08-21T10:21:13;100438.25;;;21.98;69.96
59055;BME280;44845;51.444;7.460;2023-08-21T10:23:40;100428.97;;;21.87;70.61
59055;BME280;44845;51.444;7.460;2023-08-21T10:26:07;100420.13;;;21.85;71.26
59055;BME280;44845;51.444;7.460;2023-08-21T10:28:55;100423.88;;;21.81;71.03
59055;BME280;44845;51.444;7.460;2023-08-21T10:33:56;100423.19;;;21.97;70.14
59055;BME280;44845;51.444;7.460;2023-08-21T10:39:25;100424.69;;;22.02;69.88
59055;BME280;44845;51.444;7.460;2023-08-21T10:41:55;100429.03;;;22.24;68.46
59055;BME280;44845;51.444;7.460;2023-08-21T10:49:40;100428.97;;;22.26;69.17
59055;BME280;44845;51.444;7.460;2023-08-21T10:52:07;100424.50;;;22.26;71.10
59055;BME280;44845;51.444;7.460;2023-08-21T10:54:48;100427.22;;;22.25;72.89
59055;BME280;44845;51.444;7.460;2023-08-21T10:57:13;100434.69;;;22.55;68.90
59055;BME280;44845;51.444;7.460;2023-08-21T11:00:09;100417.56;;;22.59;69.45
59055;BME280;44845;51.444;7.460;2023-08-21T11:02:40;100421.25;;;22.57;69.50
59055;BME280;44845;51.444;7.460;2023-08-21T11:05:07;100422.41;;;22.70;67.36
59055;BME280;44845;51.444;7.460;2023-08-21T11:07:44;100429.31;;;22.75;67.06
59055;BME280;44845;51.444;7.460;2023-08-21T11:10:14;100426.88;;;22.70;67.83
59055;BME280;44845;51.444;7.460;2023-08-21T11:12:57;100426.88;;;22.70;68.61
59055;BME280;44845;51.444;7.460;2023-08-21T11:15:25;100427.00;;;22.67;67.83
59055;BME280;44845;51.444;7.460;2023-08-21T11:17:57;100423.84;;;22.58;67.94
59055;BME280;44845;51.444;7.460;2023-08-21T11:20:34;100427.16;;;22.64;68.00
59055;BME280;44845;51.444;7.460;2023-08-21T11:23:01;100424.13;;;22.71;67.33
59055;BME280;44845;51.444;7.460;2023-08-21T11:25:28;100420.94;;;22.63;67.72
59055;BME280;44845;51.444;7.460;2023-08-21T11:27:55;100423.53;;;22.65;67.43
59055;BME280;44845;51.444;7.460;2023-08-21T11:30:22;100422.25;;;22.54;69.27
59055;BME280;44845;51.444;7.460;2023-08-21T11:32:49;100429.63;;;22.68;67.88
59055;BME280;44845;51.444;7.460;2023-08-21T11:35:14;100429.19;;;22.58;69.15
59055;BME280;44845;51.444;7.460;2023-08-21T11:37:43;100433.00;;;22.72;66.52
59055;BME280;44845;51.444;7.460;2023-08-21T11:40:11;100427.81;;;22.69;67.09
59055;BME280;44845;51.444;7.460;2023-08-21T11:42:36;100422.41;;;22.70;67.08
59055;BME280;44845;51.444;7.460;2023-08-21T11:45:02;100429.84;;;22.64;66.67
59055;BME280;44845;51.444;7.460;2023-08-21T11:47:34;100431.41;;;22.68;67.60
59055;BME280;44845;51.444;7.460;2023-08-21T11:50:04;100427.97;;;22.66;68.47
59055;BME280;44845;51.444;7.460;2023-08-21T11:52:30;100428.88;;;22.65;66.99
59055;BME280;44845;51.444;7.460;2023-08-21T11:55:00;100424.22;;;22.70;66.89
59055;BME280;44845;51.444;7.460;2023-08-21T11:57:26;100420.88;;;22.65;67.21
59055;BME280;44845;51.444;7.460;2023-08-21T11:59:54;100425.00;;;22.72;66.97
59055;BME280;44845;51.444;7.460;2023-08-21T12:02:27;100414.00;;;22.78;66.57
59055;BME280;44845;51.444;7.460;2023-08-21T12:05:13;100415.25;;;22.71;67.13
59055;BME280;44845;51.444;7.460;2023-08-21T12:07:38;100418.97;;;22.67;68.60
59055;BME280;44845;51.444;7.460;2023-08-21T12:10:04;100417.31;;;22.64;69.46
59055;BME280;44845;51.444;7.460;2023-08-21T12:12:29;100423.69;;;22.61;69.05
59055;BME280;44845;51.444;7.460;2023-08-21T12:14:55;100420.44;;;22.92;66.49
59055;BME280;44845;51.444;7.460;2023-08-21T12:17:20;100416.66;;;22.96;66.71
59055;BME280;44845;51.444;7.460;2023-08-21T12:19:46;100417.44;;;22.98;65.32
59055;BME280;44845;51.444;7.460;2023-08-21T12:22:11;100419.03;;;22.84;67.80
59055;BME280;44845;51.444;7.460;2023-08-21T12:24:37;100418.63;;;22.75;67.63
59055;BME280;44845;51.444;7.460;2023-08-21T12:27:03;100417.47;;;22.80;66.15
59055;BME280;44845;51.444;7.460;2023-08-21T12:29:29;100419.78;;;22.69;67.78
59055;BME280;44845;51.444;7.460;2023-08-21T12:31:54;100417.06;;;22.70;69.95
59055;BME280;44845;51.444;7.460;2023-08-21T12:34:20;100412.69;;;22.68;70.04
59055;BME280;44845;51.444;7.460;2023-08-21T12:36:45;100412.06;;;22.63;70.39
59055;BME280;44845;51.444;7.460;2023-08-21T12:39:11;100405.06;;;22.60;68.94
59055;BME280;44845;51.444;7.460;2023-08-21T12:41:36;100404.97;;;22.61;71.78
59055;BME280;44845;51.444;7.460;2023-08-21T12:44:02;100408.97;;;22.72;69.32
59055;BME280;44845;51.444;7.460;2023-08-21T12:46:29;100404.41;;;22.92;67.03
59055;BME280;44845;51.444;7.460;2023-08-21T12:48:55;100399.53;;;22.82;69.38
59055;BME280;44845;51.444;7.460;2023-08-21T12:51:20;100397.94;;;22.96;67.85
59055;BME280;44845;51.444;7.460;2023-08-21T12:53:46;100400.06;;;22.89;66.37
59055;BME280;44845;51.444;7.460;2023-08-21T12:56:11;100393.84;;;22.89;67.72
59055;BME280;44845;51.444;7.460;2023-08-21T12:58:36;100401.88;;;22.89;68.47
59055;BME280;44845;51.444;7.460;2023-08-21T13:01:02;100397.66;;;22.84;68.70
59055;BME280;44845;51.444;7.460;2023-08-21T13:03:28;100405.19;;;22.94;66.71